createdAt,value
2022-12-08T00:01:36.326Z,18.17
2022-12-08T00:04:06.521Z,14.73
2022-12-08T00:06:53.345Z,16.70
2022-12-08T00:09:23.934Z,15.00
2022-12-08T00:11:54.232Z,16.07
2022-12-08T00:14:25.099Z,15.83
2022-12-08T00:16:53.065Z,16.10
2022-12-08T00:19:22.669Z,15.77
2022-12-08T00:21:50.974Z,16.43
2022-12-08T00:24:19.552Z,16.27
2022-12-08T00:26:47.711Z,15.00
2022-12-08T00:29:17.517Z,17.13
2022-12-08T00:31:45.864Z,17.67
2022-12-08T00:34:14.383Z,17.20
2022-12-08T00:36:44.352Z,17.33
2022-12-08T00:39:13.691Z,17.07
2022-12-08T00:41:59.234Z,16.23
2022-12-08T00:44:27.236Z,17.87
2022-12-08T00:46:55.293Z,17.90
2022-12-08T00:49:23.762Z,16.03
2022-12-08T00:51:52.969Z,16.63
2022-12-08T00:54:22.910Z,19.93
2022-12-08T00:56:51.126Z,21.97
2022-12-08T00:59:19.296Z,17.77
2022-12-08T01:01:48.592Z,19.73
2022-12-08T01:04:18.351Z,18.03
2022-12-08T01:06:47.099Z,20.40
2022-12-08T01:09:17.343Z,15.23
2022-12-08T01:11:45.761Z,17.77
2022-12-08T01:14:13.927Z,18.40
2022-12-08T01:16:42.295Z,16.60
2022-12-08T01:19:12.931Z,18.93
2022-12-08T01:21:42.202Z,18.17
2022-12-08T01:24:12.477Z,17.90
2022-12-08T01:26:42.242Z,19.27
2022-12-08T01:29:10.194Z,19.90
2022-12-08T01:31:38.586Z,20.13
2022-12-08T01:34:07.017Z,16.50
2022-12-08T01:36:37.101Z,20.10
2022-12-08T01:39:07.429Z,20.57
2022-12-08T01:41:37.555Z,16.57
2022-12-08T01:44:38.460Z,19.10
2022-12-08T01:47:07.650Z,21.43
2022-12-08T01:49:37.473Z,15.93
2022-12-08T01:52:12.194Z,16.77
2022-12-08T01:54:48.527Z,16.17
2022-12-08T01:57:21.685Z,18.17
2022-12-08T01:59:54.158Z,19.00
2022-12-08T02:02:25.253Z,17.57
2022-12-08T02:04:53.195Z,19.13
2022-12-08T02:07:22.569Z,18.50
2022-12-08T02:09:50.443Z,19.10
2022-12-08T02:12:18.444Z,17.23
2022-12-08T02:14:46.235Z,19.23
2022-12-08T02:17:30.905Z,16.90
2022-12-08T02:20:24.142Z,16.27
2022-12-08T02:22:56.011Z,16.33
2022-12-08T02:25:33.364Z,19.93
2022-12-08T02:28:09.322Z,16.37
2022-12-08T02:30:48.245Z,18.20
2022-12-08T02:34:03.272Z,17.80
2022-12-08T02:36:36.485Z,17.40
2022-12-08T02:39:13.922Z,16.13
2022-12-08T02:41:50.299Z,18.40
2022-12-08T02:44:25.541Z,17.40
2022-12-08T02:46:59.074Z,16.47
2022-12-08T02:49:31.268Z,15.77
2022-12-08T02:52:29.175Z,12.97
2022-12-08T02:55:02.156Z,15.50
2022-12-08T02:57:41.590Z,14.00
2022-12-08T03:00:13.812Z,13.27
2022-12-08T03:02:49.132Z,14.93
2022-12-08T03:05:32.179Z,13.93
2022-12-08T03:08:08.963Z,11.50
2022-12-08T03:10:44.385Z,10.77
2022-12-08T03:13:16.306Z,12.80
2022-12-08T03:15:49.487Z,13.20
2022-12-08T03:18:20.466Z,10.40
2022-12-08T03:20:49.477Z,12.00
2022-12-08T03:23:19.907Z,12.73
2022-12-08T03:25:56.554Z,12.67
2022-12-08T03:28:24.866Z,12.93
2022-12-08T03:30:56.868Z,13.00
2022-12-08T03:33:30.302Z,9.73
2022-12-08T03:36:00.013Z,9.43
2022-12-08T03:38:27.893Z,12.90
2022-12-08T03:41:13.863Z,8.43
2022-12-08T03:43:41.712Z,10.80
2022-12-08T03:46:09.674Z,8.37
2022-12-08T03:48:37.514Z,10.03
2022-12-08T03:51:05.474Z,9.07
2022-12-08T03:53:33.312Z,8.40
2022-12-08T03:56:04.318Z,8.20
2022-12-08T03:58:37.181Z,9.10
2022-12-08T04:01:05.334Z,10.13
2022-12-08T04:03:33.105Z,9.13
2022-12-08T04:06:00.946Z,10.37
2022-12-08T04:08:29.473Z,9.40
2022-12-08T04:10:57.473Z,9.60
2022-12-08T04:13:26.756Z,10.20
2022-12-08T04:15:54.659Z,9.50
2022-12-08T04:18:23.076Z,11.27
2022-12-08T04:20:50.893Z,10.53
2022-12-08T04:23:18.713Z,11.60
2022-12-08T04:25:46.508Z,10.63
2022-12-08T04:28:14.340Z,10.37
2022-12-08T04:30:43.699Z,10.17
2022-12-08T04:33:11.613Z,10.07
2022-12-08T04:35:39.449Z,12.10
2022-12-08T04:38:07.317Z,12.13
2022-12-08T04:40:35.252Z,10.73
2022-12-08T04:43:03.022Z,11.67
2022-12-08T04:45:30.810Z,11.87
2022-12-08T04:48:01.539Z,11.20
2022-12-08T04:50:29.553Z,11.03
2022-12-08T04:52:57.424Z,10.70
2022-12-08T04:55:25.361Z,11.03
2022-12-08T04:57:53.252Z,11.57
2022-12-08T05:00:21.394Z,11.77
2022-12-08T05:02:49.255Z,13.83
2022-12-08T05:05:18.746Z,13.90
2022-12-08T05:07:46.605Z,11.80
2022-12-08T05:10:14.509Z,13.67
2022-12-08T05:12:42.373Z,14.43
2022-12-08T05:15:10.522Z,13.10
2022-12-08T05:17:38.767Z,14.20
2022-12-08T05:20:07.817Z,14.23
2022-12-08T05:22:37.005Z,13.40
2022-12-08T05:25:05.164Z,16.63
2022-12-08T05:27:32.905Z,14.37
2022-12-08T05:30:00.647Z,15.37
2022-12-08T05:32:28.460Z,14.47
2022-12-08T05:34:56.141Z,16.10
2022-12-08T05:37:23.912Z,16.00
2022-12-08T05:39:52.940Z,16.10
2022-12-08T05:42:24.774Z,20.87
2022-12-08T05:44:53.168Z,19.47
2022-12-08T05:47:20.850Z,20.27
2022-12-08T05:49:48.534Z,17.60
2022-12-08T05:52:16.945Z,18.30
2022-12-08T05:54:44.824Z,21.00
2022-12-08T05:57:13.908Z,18.57
2022-12-08T05:59:41.657Z,24.70
2022-12-08T06:02:09.857Z,21.63
2022-12-08T06:04:37.815Z,19.03
2022-12-08T06:07:05.586Z,22.23
2022-12-08T06:09:33.340Z,20.77
2022-12-08T06:12:02.167Z,21.67
2022-12-08T06:14:31.235Z,22.67
2022-12-08T06:16:59.018Z,21.67
2022-12-08T06:19:26.820Z,25.63
2022-12-08T06:21:54.514Z,22.67
2022-12-08T06:24:22.364Z,23.40
2022-12-08T06:26:50.129Z,23.77
2022-12-08T06:29:18.042Z,26.97
2022-12-08T06:31:47.230Z,26.43
2022-12-08T06:34:15.032Z,23.57
2022-12-08T06:36:42.853Z,21.00
2022-12-08T06:39:10.737Z,23.87
2022-12-08T06:41:58.925Z,22.53
2022-12-08T06:44:26.882Z,25.87
2022-12-08T06:46:55.958Z,23.57
2022-12-08T06:49:23.678Z,22.47
2022-12-08T06:51:51.446Z,23.10
2022-12-08T06:54:19.196Z,25.73
2022-12-08T06:56:46.959Z,25.40
2022-12-08T06:59:14.687Z,23.97
2022-12-08T07:01:42.412Z,29.70
2022-12-08T07:04:11.576Z,24.83
2022-12-08T07:06:39.401Z,26.13
2022-12-08T07:09:07.493Z,25.53
2022-12-08T07:11:35.270Z,23.70
2022-12-08T07:14:02.972Z,25.00
2022-12-08T07:16:30.774Z,25.03
2022-12-08T07:18:58.591Z,24.13
2022-12-08T07:21:27.950Z,23.27
2022-12-08T07:23:57.876Z,26.47
2022-12-08T07:26:26.816Z,24.00
2022-12-08T07:28:54.650Z,21.50
2022-12-08T07:31:24.359Z,24.57
2022-12-08T07:33:53.130Z,21.03
2022-12-08T07:36:20.961Z,25.27
2022-12-08T07:38:50.446Z,21.97
2022-12-08T07:41:23.234Z,25.10
2022-12-08T07:43:51.874Z,23.60
2022-12-08T07:46:21.928Z,22.60
2022-12-08T07:48:49.911Z,20.87
2022-12-08T07:51:18.857Z,20.33
2022-12-08T07:53:53.841Z,20.37
2022-12-08T07:56:24.549Z,22.60
2022-12-08T07:58:52.580Z,19.93
2022-12-08T08:01:26.006Z,20.37
2022-12-08T08:03:55.097Z,21.50
2022-12-08T08:06:23.013Z,21.47
2022-12-08T08:08:51.005Z,21.80
2022-12-08T08:11:21.282Z,19.40
2022-12-08T08:13:51.512Z,17.63
2022-12-08T08:16:20.772Z,17.47
2022-12-08T08:18:49.889Z,16.90
2022-12-08T08:24:06.855Z,17.67
2022-12-08T08:26:34.823Z,21.17
2022-12-08T08:29:03.891Z,20.20
2022-12-08T08:31:31.699Z,20.77
2022-12-08T08:34:04.889Z,18.80
2022-12-08T08:36:32.988Z,20.03
2022-12-08T08:39:01.075Z,20.63
2022-12-08T08:41:28.790Z,22.90
2022-12-08T08:43:56.582Z,20.03
2022-12-08T08:46:25.691Z,25.53
2022-12-08T08:48:53.458Z,21.40
2022-12-08T08:51:21.134Z,17.63
2022-12-08T08:53:49.003Z,18.60
2022-12-08T08:56:19.256Z,19.13
2022-12-08T08:58:48.801Z,20.90
2022-12-08T09:01:18.342Z,25.53
2022-12-08T09:03:48.183Z,18.57
2022-12-08T09:06:16.947Z,24.33
2022-12-08T09:08:45.051Z,18.83
2022-12-08T09:11:13.189Z,18.37
2022-12-08T09:13:41.296Z,22.43
2022-12-08T09:16:10.271Z,18.40
2022-12-08T09:18:38.059Z,19.07
2022-12-08T09:21:09.179Z,14.87
2022-12-08T09:23:37.097Z,14.87
2022-12-08T09:26:06.065Z,15.20
2022-12-08T09:28:33.921Z,17.50
2022-12-08T09:31:02.183Z,17.30
2022-12-08T09:33:29.955Z,13.87
2022-12-08T09:35:57.838Z,16.63
2022-12-08T09:38:26.997Z,15.60
2022-12-08T09:40:55.332Z,14.17
2022-12-08T09:43:47.207Z,16.47
2022-12-08T09:46:18.920Z,13.13
2022-12-08T09:48:55.522Z,12.40
2022-12-08T09:51:25.104Z,12.03
2022-12-08T09:53:58.046Z,14.93
2022-12-08T09:56:29.908Z,15.97
2022-12-08T09:59:01.590Z,13.60
2022-12-08T10:01:31.794Z,13.30
2022-12-08T10:03:59.927Z,11.93
2022-12-08T10:06:33.735Z,12.07
2022-12-08T10:09:24.585Z,9.53
2022-12-08T10:11:58.722Z,10.70
2022-12-08T10:14:33.241Z,9.53
2022-12-08T10:17:05.996Z,14.10
2022-12-08T10:19:36.254Z,10.90
2022-12-08T10:22:16.217Z,9.03
2022-12-08T10:24:53.686Z,10.90
2022-12-08T10:27:22.072Z,10.60
2022-12-08T10:29:50.523Z,10.47
2022-12-08T10:32:20.718Z,11.20
2022-12-08T10:35:02.947Z,11.93
2022-12-08T10:37:30.738Z,11.07
2022-12-08T10:40:07.246Z,12.90
2022-12-08T10:42:39.028Z,13.43
2022-12-08T10:45:25.725Z,11.70
2022-12-08T10:48:00.921Z,15.60
2022-12-08T10:50:32.109Z,13.60
2022-12-08T10:53:01.503Z,13.37
2022-12-08T10:55:40.082Z,14.03
2022-12-08T10:58:24.598Z,13.63
2022-12-08T11:00:55.404Z,15.70
2022-12-08T11:03:27.636Z,15.67
2022-12-08T11:05:58.892Z,12.67
2022-12-08T11:08:27.710Z,15.33
2022-12-08T11:10:56.955Z,14.23
2022-12-08T11:13:26.734Z,13.90
2022-12-08T11:15:56.089Z,10.93
2022-12-08T11:18:28.869Z,11.17
2022-12-08T11:21:03.235Z,11.27
2022-12-08T11:23:31.640Z,8.57
2022-12-08T11:26:12.727Z,12.33
2022-12-08T11:28:41.058Z,8.93
2022-12-08T11:31:22.114Z,10.20
2022-12-08T11:33:52.249Z,9.80
2022-12-08T11:36:23.245Z,12.17
2022-12-08T11:38:56.525Z,9.37
2022-12-08T11:41:30.783Z,11.03
2022-12-08T11:44:07.080Z,10.30
2022-12-08T11:46:39.698Z,8.20
2022-12-08T11:49:13.056Z,9.87
2022-12-08T11:51:45.364Z,9.37
2022-12-08T11:54:21.068Z,9.27
2022-12-08T11:56:53.862Z,10.60
2022-12-08T11:59:30.016Z,10.63
2022-12-08T12:01:59.412Z,10.87
2022-12-08T12:04:34.198Z,11.73
2022-12-08T12:07:25.980Z,10.47
2022-12-08T12:10:14.041Z,10.63
2022-12-08T12:12:58.386Z,12.57
2022-12-08T12:16:07.277Z,9.43
2022-12-08T12:18:45.157Z,10.60
2022-12-08T12:21:20.275Z,9.80
2022-12-08T12:23:54.694Z,9.50
2022-12-08T12:26:25.184Z,11.57
2022-12-08T12:28:58.267Z,11.07
2022-12-08T12:31:29.640Z,9.37
2022-12-08T12:34:07.170Z,13.43
2022-12-08T12:36:48.393Z,9.77
2022-12-08T12:39:19.272Z,9.40
2022-12-08T12:41:49.932Z,14.00
2022-12-08T12:44:43.091Z,10.43
2022-12-08T12:47:35.378Z,11.30
2022-12-08T12:50:08.772Z,13.17
2022-12-08T12:52:44.314Z,12.03
2022-12-08T12:55:50.808Z,11.17
2022-12-08T12:58:50.754Z,14.57
2022-12-08T13:01:53.764Z,11.50
2022-12-08T13:04:29.955Z,15.50
2022-12-08T13:06:58.289Z,14.50
2022-12-08T13:09:32.833Z,13.40
2022-12-08T13:12:08.430Z,14.83
2022-12-08T13:14:38.129Z,11.37
2022-12-08T13:17:13.310Z,11.37
2022-12-08T13:19:45.356Z,11.13
2022-12-08T13:22:55.452Z,11.47
2022-12-08T13:25:46.772Z,11.33
2022-12-08T13:28:19.936Z,12.53
2022-12-08T13:30:50.070Z,13.07
2022-12-08T13:33:25.276Z,11.07
2022-12-08T13:36:20.704Z,9.37
2022-12-08T13:38:51.402Z,9.10
2022-12-08T13:41:23.431Z,10.03
2022-12-08T13:44:50.411Z,8.67
2022-12-08T13:47:24.513Z,8.73
2022-12-08T13:50:57.598Z,12.57
2022-12-08T13:58:30.117Z,10.70
2022-12-08T14:01:06.707Z,10.17
2022-12-08T14:04:04.690Z,9.10
2022-12-08T14:06:40.194Z,11.27
2022-12-08T14:09:12.871Z,10.30
2022-12-08T14:11:44.201Z,11.57
2022-12-08T14:14:32.523Z,8.87
2022-12-08T14:17:07.032Z,9.50
2022-12-08T14:19:36.307Z,10.03
2022-12-08T14:22:12.199Z,11.97
2022-12-08T14:24:41.414Z,8.80
2022-12-08T14:27:15.559Z,12.73
2022-12-08T14:29:45.745Z,10.47
2022-12-08T14:32:22.730Z,10.63
2022-12-08T14:34:59.641Z,10.37
2022-12-08T14:37:31.250Z,8.83
2022-12-08T14:40:02.529Z,11.17
2022-12-08T14:42:30.881Z,12.27
2022-12-08T14:45:06.647Z,11.47
2022-12-08T14:47:43.051Z,13.87
2022-12-08T14:50:40.552Z,10.80
2022-12-08T14:53:15.498Z,8.23
2022-12-08T14:55:46.009Z,10.97
2022-12-08T14:58:25.633Z,11.40
2022-12-08T15:00:58.274Z,10.07
2022-12-08T15:03:28.038Z,9.70
2022-12-08T15:06:01.255Z,11.50
2022-12-08T15:08:32.047Z,9.43
2022-12-08T15:11:29.653Z,7.70
2022-12-08T15:13:57.879Z,11.80
2022-12-08T15:16:28.563Z,10.93
2022-12-08T15:19:06.038Z,12.13
2022-12-08T15:21:39.574Z,9.70
2022-12-08T15:24:12.112Z,10.40
2022-12-08T15:26:47.593Z,9.20
2022-12-08T15:29:23.063Z,11.77
2022-12-08T15:31:52.416Z,9.17
2022-12-08T15:34:20.482Z,9.43
2022-12-08T15:36:49.978Z,11.00
2022-12-08T15:39:33.598Z,11.33
2022-12-08T15:42:02.610Z,11.23
2022-12-08T15:44:32.841Z,12.40
2022-12-08T15:47:01.264Z,8.70
2022-12-08T15:49:29.333Z,8.67
2022-12-08T15:52:08.072Z,13.50
2022-12-08T15:54:40.542Z,8.57
2022-12-08T15:57:22.242Z,7.40
2022-12-08T16:00:05.584Z,11.67
2022-12-08T16:02:56.201Z,9.90
2022-12-08T16:08:44.678Z,7.97
2022-12-08T16:11:56.583Z,8.43
2022-12-08T16:14:36.830Z,10.80
2022-12-08T16:16:53.915Z,7.07
2022-12-08T16:19:21.744Z,7.30
2022-12-08T16:22:30.247Z,9.60
2022-12-08T16:24:40.455Z,7.07
2022-12-08T16:30:01.704Z,10.13
2022-12-08T16:32:32.586Z,7.47
2022-12-08T16:35:02.277Z,6.73
2022-12-08T16:37:30.359Z,9.33
2022-12-08T16:39:59.255Z,12.37
2022-12-08T16:42:47.673Z,6.90
2022-12-08T16:45:18.504Z,10.90
2022-12-08T16:47:49.239Z,9.50
2022-12-08T16:50:19.880Z,7.47
2022-12-08T16:52:50.547Z,6.40
2022-12-08T16:55:20.923Z,9.67
2022-12-08T16:57:51.194Z,7.03
2022-12-08T17:00:23.619Z,7.13
2022-12-08T17:02:52.232Z,10.27
2022-12-08T17:05:22.522Z,7.30
2022-12-08T17:07:52.570Z,9.13
2022-12-08T17:10:22.958Z,11.03
2022-12-08T17:12:52.435Z,7.00
2022-12-08T17:15:22.151Z,6.87
2022-12-08T17:17:53.287Z,9.53
2022-12-08T17:20:23.016Z,11.43
2022-12-08T17:22:51.069Z,10.00
2022-12-08T17:25:20.450Z,8.47
2022-12-08T17:27:48.377Z,8.13
2022-12-08T17:30:18.896Z,9.83
2022-12-08T17:32:46.881Z,9.17
2022-12-08T17:35:15.817Z,7.37
2022-12-08T17:37:44.301Z,8.23
2022-12-08T17:40:12.708Z,10.63
2022-12-08T17:42:40.827Z,10.67
2022-12-08T17:45:09.643Z,10.13
2022-12-08T17:47:39.180Z,10.70
2022-12-08T17:50:08.482Z,9.70
2022-12-08T17:52:36.497Z,7.80
2022-12-08T17:55:04.669Z,9.67
2022-12-08T17:57:32.436Z,11.43
2022-12-08T18:00:00.249Z,10.13
2022-12-08T18:02:28.838Z,6.97
2022-12-08T18:04:58.099Z,10.53
2022-12-08T18:07:25.786Z,8.23
2022-12-08T18:09:53.624Z,11.20
2022-12-08T18:12:23.843Z,8.23
2022-12-08T18:14:52.525Z,11.00
2022-12-08T18:17:20.672Z,7.37
2022-12-08T18:19:48.495Z,8.93
2022-12-08T18:22:17.630Z,8.27
2022-12-08T18:24:47.514Z,7.60
2022-12-08T18:27:15.241Z,12.73
2022-12-08T18:29:43.037Z,10.17
2022-12-08T18:32:10.921Z,8.67
2022-12-08T18:34:38.661Z,7.83
2022-12-08T18:37:07.352Z,7.80
2022-12-08T18:39:37.465Z,8.67
2022-12-08T18:42:22.945Z,8.17
2022-12-08T18:44:51.828Z,10.77
2022-12-08T18:47:20.764Z,10.00
2022-12-08T18:49:48.538Z,10.43
2022-12-08T18:52:22.094Z,10.10
2022-12-08T18:55:06.397Z,9.83
2022-12-08T18:57:34.671Z,10.07
2022-12-08T19:00:03.317Z,11.70
2022-12-08T19:02:31.213Z,9.77
2022-12-08T19:04:59.268Z,9.03
2022-12-08T19:07:27.257Z,14.20
2022-12-08T19:09:56.373Z,10.27
2022-12-08T19:12:24.198Z,8.73
2022-12-08T19:14:51.883Z,8.10
2022-12-08T19:17:19.747Z,11.67
2022-12-08T19:19:47.585Z,9.27
2022-12-08T19:22:15.453Z,12.43
2022-12-08T19:24:43.455Z,13.90
2022-12-08T19:27:12.493Z,10.57
2022-12-08T19:29:40.244Z,9.50
2022-12-08T19:32:08.001Z,9.20
2022-12-08T19:34:35.778Z,8.57
2022-12-08T19:37:03.532Z,7.60
2022-12-08T19:39:48.684Z,12.63
2022-12-08T19:42:37.883Z,10.57
2022-12-08T19:45:08.418Z,10.00
2022-12-08T19:47:36.322Z,11.40
2022-12-08T19:50:22.528Z,9.50
2022-12-08T19:52:50.810Z,10.73
2022-12-08T19:55:19.031Z,10.83
2022-12-08T19:57:48.161Z,8.87
2022-12-08T20:00:16.713Z,9.07
2022-12-08T20:02:44.623Z,9.37
2022-12-08T20:05:13.744Z,12.63
2022-12-08T20:07:42.235Z,11.27
2022-12-08T20:10:15.609Z,11.90
2022-12-08T20:12:43.597Z,9.50
2022-12-08T20:15:14.723Z,10.30
2022-12-08T20:17:43.433Z,12.50
2022-12-08T20:20:12.859Z,11.90
2022-12-08T20:22:41.389Z,10.03
2022-12-08T20:25:13.095Z,9.93
2022-12-08T20:27:41.377Z,9.70
2022-12-08T20:30:16.516Z,11.73
2022-12-08T20:32:46.187Z,14.17
2022-12-08T20:35:14.241Z,10.23
2022-12-08T20:37:42.280Z,12.07
2022-12-08T20:40:10.723Z,12.10
2022-12-08T20:42:38.696Z,13.77
2022-12-08T20:45:08.973Z,13.37
2022-12-08T20:47:37.340Z,14.37
2022-12-08T20:50:08.756Z,13.47
2022-12-08T20:52:37.891Z,12.33
2022-12-08T20:55:07.869Z,14.10
2022-12-08T20:57:36.128Z,14.97
2022-12-08T21:00:05.486Z,10.30
2022-12-08T21:02:33.879Z,15.33
2022-12-08T21:05:01.899Z,13.63
2022-12-08T21:07:32.290Z,14.10
2022-12-08T21:10:00.205Z,12.70
2022-12-08T21:12:28.163Z,13.23
2022-12-08T21:14:56.031Z,16.30
2022-12-08T21:17:23.958Z,15.47
2022-12-08T21:19:52.236Z,13.90
2022-12-08T21:22:21.113Z,14.97
2022-12-08T21:24:50.473Z,12.47
2022-12-08T21:27:18.437Z,11.73
2022-12-08T21:29:46.364Z,12.57
2022-12-08T21:32:14.171Z,14.63
2022-12-08T21:34:44.001Z,14.90
2022-12-08T21:37:11.976Z,11.57
2022-12-08T21:39:39.830Z,12.20
2022-12-08T21:42:33.678Z,16.20
2022-12-08T21:45:02.099Z,11.07
2022-12-08T21:47:30.227Z,14.80
2022-12-08T21:49:58.177Z,11.20
2022-12-08T21:52:26.021Z,12.30
2022-12-08T21:54:53.911Z,11.87
2022-12-08T21:57:23.346Z,10.17
2022-12-08T21:59:51.785Z,11.70
2022-12-08T22:02:22.474Z,13.53
2022-12-08T22:04:52.565Z,13.73
2022-12-08T22:07:21.091Z,14.43
2022-12-08T22:09:49.223Z,17.20
2022-12-08T22:12:17.580Z,10.23
2022-12-08T22:14:48.569Z,13.80
2022-12-08T22:17:16.670Z,11.70
2022-12-08T22:19:44.645Z,12.67
2022-12-08T22:22:12.500Z,11.67
2022-12-08T22:24:40.245Z,13.17
2022-12-08T22:27:07.949Z,14.20
2022-12-08T22:29:35.704Z,14.27
2022-12-08T22:32:05.251Z,11.60
2022-12-08T22:34:33.227Z,14.67
2022-12-08T22:37:01.112Z,14.63
2022-12-08T22:39:28.928Z,15.03
2022-12-08T22:41:56.628Z,12.00
2022-12-08T22:44:24.588Z,14.07
2022-12-08T22:46:52.521Z,13.83
2022-12-08T22:49:21.688Z,14.53
2022-12-08T22:51:49.665Z,13.47
2022-12-08T22:54:17.473Z,14.03
2022-12-08T22:56:45.451Z,15.40
2022-12-08T22:59:13.178Z,17.67
2022-12-08T23:01:41.199Z,13.67
2022-12-08T23:04:17.251Z,14.20
2022-12-08T23:06:46.948Z,15.33
2022-12-08T23:09:14.832Z,16.47
2022-12-08T23:11:44.252Z,15.80
2022-12-08T23:14:12.087Z,15.53
2022-12-08T23:16:39.920Z,15.87
2022-12-08T23:19:08.170Z,14.97
2022-12-08T23:21:36.063Z,13.70
2022-12-08T23:24:05.931Z,15.57
2022-12-08T23:26:35.337Z,16.77
2022-12-08T23:29:04.026Z,17.27
2022-12-08T23:31:32.172Z,16.13
2022-12-08T23:34:00.038Z,14.77
2022-12-08T23:36:27.798Z,14.77
2022-12-08T23:38:55.549Z,18.23
2022-12-08T23:41:24.615Z,15.37
2022-12-08T23:43:53.293Z,13.20
2022-12-08T23:46:23.298Z,15.87
2022-12-08T23:48:51.755Z,14.30
2022-12-08T23:51:19.602Z,14.37
2022-12-08T23:53:47.721Z,13.43
2022-12-08T23:56:17.972Z,13.93
2022-12-08T23:58:47.742Z,14.00
